createdAt,value
2022-10-31T00:00:55.666Z,11.30
2022-10-31T00:01:55.632Z,11.27
2022-10-31T00:02:55.566Z,11.26
2022-10-31T00:03:55.564Z,11.26
2022-10-31T00:04:55.532Z,11.30
2022-10-31T00:05:55.538Z,11.35
2022-10-31T00:06:55.534Z,11.41
2022-10-31T00:07:55.524Z,11.44
2022-10-31T00:08:55.495Z,11.51
2022-10-31T00:09:55.505Z,11.54
2022-10-31T00:10:55.472Z,11.57
2022-10-31T00:11:55.477Z,11.60
2022-10-31T00:12:55.474Z,11.59
2022-10-31T00:13:55.479Z,11.60
2022-10-31T00:14:55.424Z,11.63
2022-10-31T00:15:55.431Z,11.62
2022-10-31T00:16:55.408Z,11.60
2022-10-31T00:17:55.457Z,11.55
2022-10-31T00:18:55.379Z,11.52
2022-10-31T00:19:55.389Z,11.50
2022-10-31T00:20:55.359Z,11.51
2022-10-31T00:21:55.371Z,11.48
2022-10-31T00:22:55.348Z,11.50
2022-10-31T00:23:55.371Z,11.54
2022-10-31T00:24:55.319Z,11.57
2022-10-31T00:25:55.321Z,11.62
2022-10-31T00:26:55.316Z,11.62
2022-10-31T00:27:55.306Z,11.65
2022-10-31T00:28:55.301Z,11.63
2022-10-31T00:29:55.346Z,11.65
2022-10-31T00:30:55.252Z,11.62
2022-10-31T00:31:55.263Z,11.60
2022-10-31T00:32:55.231Z,11.57
2022-10-31T00:33:55.230Z,11.59
2022-10-31T00:34:55.241Z,11.62
2022-10-31T00:35:55.220Z,11.68
2022-10-31T00:36:55.187Z,11.72
2022-10-31T00:37:55.208Z,11.73
2022-10-31T00:38:55.168Z,11.80
2022-10-31T00:39:55.200Z,11.83
2022-10-31T00:40:55.146Z,11.83
2022-10-31T00:41:55.160Z,11.81
2022-10-31T00:42:55.176Z,11.84
2022-10-31T00:43:55.124Z,11.83
2022-10-31T00:44:55.107Z,11.87
2022-10-31T00:45:55.126Z,11.95
2022-10-31T00:46:55.079Z,12.00
2022-10-31T00:47:55.085Z,12.00
2022-10-31T00:48:55.060Z,12.03
2022-10-31T00:49:55.062Z,12.03
2022-10-31T00:50:55.081Z,12.00
2022-10-31T00:51:55.038Z,11.95
2022-10-31T00:52:55.022Z,11.95
2022-10-31T00:53:55.020Z,11.94
2022-10-31T00:54:55.230Z,11.95
2022-10-31T00:55:55.003Z,11.99
2022-10-31T00:56:55.007Z,12.00
2022-10-31T00:57:55.026Z,11.99
2022-10-31T00:58:54.954Z,12.00
2022-10-31T00:59:54.959Z,11.99
2022-10-31T01:00:54.956Z,12.04
2022-10-31T01:01:55.196Z,12.07
2022-10-31T01:02:54.915Z,12.07
2022-10-31T01:03:54.910Z,12.09
2022-10-31T01:04:54.891Z,12.10
2022-10-31T01:05:54.894Z,12.07
2022-10-31T01:06:54.917Z,12.06
2022-10-31T01:07:54.887Z,12.04
2022-10-31T01:08:54.848Z,12.04
2022-10-31T01:09:54.850Z,12.06
2022-10-31T01:10:54.835Z,12.06
2022-10-31T01:11:54.825Z,12.09
2022-10-31T01:12:55.271Z,12.09
2022-10-31T01:13:54.869Z,12.09
2022-10-31T01:14:54.782Z,12.15
2022-10-31T01:15:54.783Z,12.17
2022-10-31T01:16:54.757Z,12.17
2022-10-31T01:17:54.760Z,12.17
2022-10-31T01:18:54.764Z,12.22
2022-10-31T01:19:54.736Z,12.22
2022-10-31T01:20:54.721Z,12.25
2022-10-31T01:21:54.712Z,12.29
2022-10-31T01:22:54.695Z,12.31
2022-10-31T01:23:54.762Z,12.31
2022-10-31T01:24:54.672Z,12.35
2022-10-31T01:25:54.674Z,12.29
2022-10-31T01:26:54.684Z,12.27
2022-10-31T01:27:54.651Z,12.24
2022-10-31T01:28:54.633Z,12.15
2022-10-31T01:29:54.660Z,12.15
2022-10-31T01:30:54.627Z,12.15
2022-10-31T01:31:54.610Z,12.12
2022-10-31T01:32:54.582Z,12.06
2022-10-31T01:33:54.593Z,12.07
2022-10-31T01:34:54.604Z,12.09
2022-10-31T01:35:54.573Z,12.12
2022-10-31T01:36:54.558Z,12.12
2022-10-31T01:37:54.545Z,12.10
2022-10-31T01:38:54.520Z,12.12
2022-10-31T01:39:54.522Z,12.13
2022-10-31T01:40:54.521Z,12.13
2022-10-31T01:41:54.502Z,12.09
2022-10-31T01:42:54.482Z,12.06
2022-10-31T01:43:54.478Z,12.09
2022-10-31T01:44:54.457Z,12.12
2022-10-31T01:45:54.484Z,12.13
2022-10-31T01:46:54.436Z,12.15
2022-10-31T01:47:54.440Z,12.17
2022-10-31T01:48:54.411Z,12.18
2022-10-31T01:49:54.413Z,12.17
2022-10-31T01:50:54.392Z,12.17
2022-10-31T01:51:54.414Z,12.20
2022-10-31T01:52:54.374Z,12.24
2022-10-31T01:53:54.373Z,12.28
2022-10-31T01:54:54.344Z,12.31
2022-10-31T01:55:54.352Z,12.32
2022-10-31T01:56:54.432Z,12.35
2022-10-31T01:57:54.347Z,12.31
2022-10-31T01:58:54.356Z,12.32
2022-10-31T01:59:54.310Z,12.29
2022-10-31T02:00:54.366Z,12.32
2022-10-31T02:01:54.453Z,12.35
2022-10-31T02:02:54.300Z,12.36
2022-10-31T02:03:54.265Z,12.36
2022-10-31T02:04:54.260Z,12.35
2022-10-31T02:05:54.242Z,12.32
2022-10-31T02:06:54.218Z,12.35
2022-10-31T02:07:54.282Z,12.35
2022-10-31T02:08:54.196Z,12.28
2022-10-31T02:09:54.204Z,12.24
2022-10-31T02:10:54.176Z,12.22
2022-10-31T02:11:54.182Z,12.24
2022-10-31T02:12:54.156Z,12.27
2022-10-31T02:13:54.200Z,12.32
2022-10-31T02:14:54.132Z,12.35
2022-10-31T02:15:54.146Z,12.36
2022-10-31T02:16:54.115Z,12.39
2022-10-31T02:17:54.118Z,12.43
2022-10-31T02:18:54.114Z,12.46
2022-10-31T02:19:54.101Z,12.50
2022-10-31T02:20:54.070Z,12.57
2022-10-31T02:21:54.083Z,12.60
2022-10-31T02:22:54.044Z,12.62
2022-10-31T02:23:54.056Z,12.64
2022-10-31T02:24:54.048Z,12.70
2022-10-31T02:25:54.044Z,12.70
2022-10-31T02:26:54.005Z,12.67
2022-10-31T02:27:54.024Z,12.70
2022-10-31T02:28:53.992Z,12.75
2022-10-31T02:29:54.010Z,12.79
2022-10-31T02:30:53.975Z,12.79
2022-10-31T02:31:53.963Z,12.82
2022-10-31T02:32:53.959Z,12.83
2022-10-31T02:33:53.941Z,12.85
2022-10-31T02:34:53.915Z,12.91
2022-10-31T02:35:53.959Z,12.87
2022-10-31T02:36:53.902Z,12.93
2022-10-31T02:37:53.903Z,12.91
2022-10-31T02:38:53.875Z,12.93
2022-10-31T02:39:53.879Z,12.90
2022-10-31T02:40:53.903Z,12.94
2022-10-31T02:41:53.857Z,12.90
2022-10-31T02:42:53.888Z,12.93
2022-10-31T02:43:53.844Z,12.93
2022-10-31T02:44:53.814Z,12.94
2022-10-31T02:45:53.812Z,12.91
2022-10-31T02:46:53.809Z,12.90
2022-10-31T02:47:53.792Z,12.86
2022-10-31T02:48:53.774Z,12.82
2022-10-31T02:49:53.771Z,12.79
2022-10-31T02:50:53.746Z,12.75
2022-10-31T02:51:53.772Z,12.67
2022-10-31T02:52:53.724Z,12.62
2022-10-31T02:53:53.726Z,12.64
2022-10-31T02:54:53.703Z,12.61
2022-10-31T02:55:53.706Z,12.60
2022-10-31T02:56:53.680Z,12.54
2022-10-31T02:57:53.707Z,12.47
2022-10-31T02:58:53.661Z,12.39
2022-10-31T02:59:53.671Z,12.36
2022-10-31T03:00:53.715Z,12.39
2022-10-31T03:01:53.758Z,12.39
2022-10-31T03:02:53.659Z,12.37
2022-10-31T03:03:53.616Z,12.35
2022-10-31T03:04:53.602Z,12.32
2022-10-31T03:05:53.597Z,12.35
2022-10-31T03:06:53.579Z,12.24
2022-10-31T03:07:53.588Z,12.12
2022-10-31T03:08:53.586Z,12.07
2022-10-31T03:09:53.552Z,11.97
2022-10-31T03:10:53.529Z,11.90
2022-10-31T03:11:53.536Z,11.83
2022-10-31T03:12:53.513Z,11.81
2022-10-31T03:13:53.538Z,11.83
2022-10-31T03:14:53.492Z,11.87
2022-10-31T03:15:53.489Z,11.87
2022-10-31T03:16:53.478Z,11.87
2022-10-31T03:17:53.470Z,11.86
2022-10-31T03:18:53.457Z,11.84
2022-10-31T03:19:53.470Z,11.84
2022-10-31T03:20:53.423Z,11.87
2022-10-31T03:21:53.428Z,11.84
2022-10-31T03:22:53.403Z,11.86
2022-10-31T03:23:53.409Z,11.81
2022-10-31T03:24:53.410Z,11.73
2022-10-31T03:25:53.385Z,11.72
2022-10-31T03:26:53.357Z,11.77
2022-10-31T03:27:53.362Z,11.75
2022-10-31T03:28:53.348Z,11.73
2022-10-31T03:29:53.340Z,11.70
2022-10-31T03:30:53.346Z,11.69
2022-10-31T03:31:53.316Z,11.68
2022-10-31T03:32:53.290Z,11.62
2022-10-31T03:33:53.291Z,11.52
2022-10-31T03:34:53.275Z,11.47
2022-10-31T03:35:53.298Z,11.41
2022-10-31T03:36:53.258Z,11.44
2022-10-31T03:37:53.255Z,11.45
2022-10-31T03:38:53.227Z,11.45
2022-10-31T03:39:53.234Z,11.44
2022-10-31T03:40:53.211Z,11.45
2022-10-31T03:41:53.243Z,11.40
2022-10-31T03:42:53.183Z,11.35
2022-10-31T03:43:53.195Z,11.23
2022-10-31T03:44:53.163Z,11.18
2022-10-31T03:45:53.162Z,11.17
2022-10-31T03:46:53.167Z,11.15
2022-10-31T03:47:53.142Z,11.15
2022-10-31T03:48:53.116Z,11.18
2022-10-31T03:49:53.124Z,11.19
2022-10-31T03:50:53.096Z,11.22
2022-10-31T03:51:53.099Z,11.25
2022-10-31T03:52:53.107Z,11.25
2022-10-31T03:53:53.079Z,11.29
2022-10-31T03:54:53.062Z,11.35
2022-10-31T03:55:53.061Z,11.37
2022-10-31T03:56:53.038Z,11.43
2022-10-31T03:57:53.051Z,11.47
2022-10-31T03:58:53.026Z,11.50
2022-10-31T03:59:53.004Z,11.54
2022-10-31T04:00:53.002Z,11.59
2022-10-31T04:01:53.177Z,11.62
2022-10-31T04:02:52.994Z,11.65
2022-10-31T04:03:52.978Z,11.66
2022-10-31T04:04:52.959Z,11.70
2022-10-31T04:05:52.949Z,11.73
2022-10-31T04:06:52.936Z,11.75
2022-10-31T04:07:52.915Z,11.77
2022-10-31T04:08:52.941Z,11.75
2022-10-31T04:09:52.892Z,11.77
2022-10-31T04:10:52.898Z,11.78
2022-10-31T04:11:52.874Z,11.81
2022-10-31T04:12:52.870Z,11.86
2022-10-31T04:13:52.853Z,11.87
2022-10-31T04:14:52.989Z,11.88
2022-10-31T04:15:52.832Z,11.88
2022-10-31T04:16:52.833Z,11.94
2022-10-31T04:17:52.808Z,11.97
2022-10-31T04:18:52.813Z,11.99
2022-10-31T04:19:52.812Z,12.02
2022-10-31T04:20:52.803Z,12.00
2022-10-31T04:21:52.768Z,12.02
2022-10-31T04:22:52.769Z,12.00
2022-10-31T04:23:52.753Z,11.97
2022-10-31T04:24:52.746Z,11.95
2022-10-31T04:25:52.743Z,11.95
2022-10-31T04:26:52.724Z,11.97
2022-10-31T04:27:52.701Z,12.00
2022-10-31T04:28:52.711Z,12.03
2022-10-31T04:29:52.680Z,12.03
2022-10-31T04:30:52.708Z,12.02
2022-10-31T04:31:52.660Z,12.04
2022-10-31T04:32:52.658Z,12.04
2022-10-31T04:33:52.634Z,12.03
2022-10-31T04:34:52.642Z,12.04
2022-10-31T04:35:52.618Z,12.02
2022-10-31T04:36:52.639Z,12.02
2022-10-31T04:37:52.592Z,11.97
2022-10-31T04:38:52.600Z,11.91
2022-10-31T04:39:52.575Z,11.88
2022-10-31T04:40:52.577Z,11.86
2022-10-31T04:41:52.594Z,11.77
2022-10-31T04:42:52.558Z,11.66
2022-10-31T04:43:52.528Z,11.57
2022-10-31T04:44:52.534Z,11.48
2022-10-31T04:45:52.508Z,11.44
2022-10-31T04:46:52.508Z,11.47
2022-10-31T04:47:52.529Z,11.48
2022-10-31T04:48:52.490Z,11.47
2022-10-31T04:49:52.463Z,11.50
2022-10-31T04:50:52.466Z,11.47
2022-10-31T04:51:52.442Z,11.47
2022-10-31T04:52:52.468Z,11.44
2022-10-31T04:53:52.432Z,11.37
2022-10-31T04:54:52.419Z,11.32
2022-10-31T04:55:52.401Z,11.29
2022-10-31T04:56:52.408Z,11.27
2022-10-31T04:57:52.373Z,11.30
2022-10-31T04:58:52.398Z,11.26
2022-10-31T04:59:52.352Z,11.25
2022-10-31T05:00:52.403Z,11.22
2022-10-31T05:01:52.524Z,11.18
2022-10-31T05:02:52.365Z,11.17
2022-10-31T05:03:52.338Z,11.12
2022-10-31T05:04:52.314Z,11.10
2022-10-31T05:05:52.306Z,11.08
2022-10-31T05:06:52.297Z,11.10
2022-10-31T05:07:52.286Z,11.11
2022-10-31T05:08:52.272Z,11.05
2022-10-31T05:09:52.274Z,11.07
2022-10-31T05:10:52.249Z,11.05
2022-10-31T05:11:52.224Z,11.02
2022-10-31T05:12:52.235Z,11.04
2022-10-31T05:13:52.201Z,11.04
2022-10-31T05:14:52.229Z,11.02
2022-10-31T05:15:52.187Z,11.02
2022-10-31T05:16:52.189Z,11.07
2022-10-31T05:17:52.159Z,11.08
2022-10-31T05:18:52.165Z,11.11
2022-10-31T05:19:52.151Z,11.14
2022-10-31T05:20:52.161Z,11.08
2022-10-31T05:21:52.119Z,11.05
2022-10-31T05:22:52.122Z,11.04
2022-10-31T05:23:52.092Z,11.00
2022-10-31T05:24:52.097Z,10.99
2022-10-31T05:25:52.102Z,10.94
2022-10-31T05:26:52.080Z,10.87
2022-10-31T05:27:52.064Z,10.79
2022-10-31T05:28:52.063Z,10.78
2022-10-31T05:29:52.120Z,10.79
2022-10-31T05:30:52.069Z,10.76
2022-10-31T05:31:52.036Z,10.76
2022-10-31T05:32:52.021Z,10.79
2022-10-31T05:33:51.995Z,10.78
2022-10-31T05:34:51.989Z,10.71
2022-10-31T05:35:52.033Z,10.63
2022-10-31T05:36:51.968Z,10.59
2022-10-31T05:37:51.951Z,10.56
2022-10-31T05:38:51.936Z,10.56
2022-10-31T05:39:51.935Z,10.57
2022-10-31T05:40:51.942Z,10.59
2022-10-31T05:41:51.905Z,10.59
2022-10-31T05:42:51.904Z,10.60
2022-10-31T05:43:51.895Z,10.59
2022-10-31T05:44:51.881Z,10.57
2022-10-31T05:45:51.854Z,10.59
2022-10-31T05:46:51.883Z,10.61
2022-10-31T05:47:51.841Z,10.56
2022-10-31T05:48:51.840Z,10.51
2022-10-31T05:49:51.839Z,10.44
2022-10-31T05:50:51.818Z,10.48
2022-10-31T05:51:51.812Z,10.48
2022-10-31T05:52:51.804Z,10.46
2022-10-31T05:53:51.784Z,10.48
2022-10-31T05:54:51.776Z,10.46
2022-10-31T05:55:51.772Z,10.38
2022-10-31T05:56:51.755Z,10.33
2022-10-31T05:57:51.743Z,10.28
2022-10-31T05:58:51.730Z,10.26
2022-10-31T05:59:54.900Z,10.28
2022-10-31T06:00:51.729Z,10.33
2022-10-31T06:01:51.787Z,10.35
2022-10-31T06:02:51.694Z,10.41
2022-10-31T06:03:51.696Z,10.44
2022-10-31T06:04:51.739Z,10.46
2022-10-31T06:05:54.995Z,10.48
2022-10-31T06:06:51.647Z,10.46
2022-10-31T06:07:51.655Z,10.44
2022-10-31T06:08:51.620Z,10.41
2022-10-31T06:09:51.617Z,10.38
2022-10-31T06:10:51.601Z,10.38
2022-10-31T06:11:51.577Z,10.28
2022-10-31T06:12:51.581Z,10.25
2022-10-31T06:13:51.559Z,10.23
2022-10-31T06:14:51.609Z,10.19
2022-10-31T06:15:51.538Z,10.16
2022-10-31T06:16:51.539Z,10.19
2022-10-31T06:17:51.522Z,10.20
2022-10-31T06:18:51.517Z,10.28
2022-10-31T06:19:51.513Z,10.33
2022-10-31T06:20:51.513Z,10.37
2022-10-31T06:21:51.468Z,10.35
2022-10-31T06:22:51.476Z,10.34
2022-10-31T06:23:51.450Z,10.38
2022-10-31T06:24:51.456Z,10.41
2022-10-31T06:25:51.478Z,10.41
2022-10-31T06:26:51.428Z,10.49
2022-10-31T06:27:51.403Z,10.51
2022-10-31T06:28:51.413Z,10.56
2022-10-31T06:29:51.389Z,10.51
2022-10-31T06:30:51.385Z,10.54
2022-10-31T06:31:51.385Z,10.54
2022-10-31T06:32:51.371Z,10.53
2022-10-31T06:33:51.337Z,10.51
2022-10-31T06:34:51.349Z,10.49
2022-10-31T06:35:51.316Z,10.49
2022-10-31T06:36:51.367Z,10.46
2022-10-31T06:37:51.296Z,10.42
2022-10-31T06:38:51.318Z,10.44
2022-10-31T06:39:51.298Z,10.40
2022-10-31T06:40:51.287Z,10.41
2022-10-31T06:41:51.254Z,10.41
2022-10-31T06:42:51.278Z,10.40
2022-10-31T06:43:51.237Z,10.34
2022-10-31T06:44:51.236Z,10.35
2022-10-31T06:45:51.215Z,10.37
2022-10-31T06:46:51.219Z,10.41
2022-10-31T06:48:15.511Z,10.46
2022-10-31T06:48:51.196Z,10.49
2022-10-31T06:49:51.175Z,10.49
2022-10-31T06:50:54.677Z,10.56
2022-10-31T06:51:51.159Z,10.57
2022-10-31T06:52:51.157Z,10.63
2022-10-31T06:53:51.144Z,10.61
2022-10-31T06:54:51.124Z,10.63
2022-10-31T06:55:51.107Z,10.64
2022-10-31T06:56:51.108Z,10.64
2022-10-31T06:57:51.082Z,10.64
2022-10-31T06:58:51.116Z,10.68
2022-10-31T06:59:51.064Z,10.71
2022-10-31T07:00:51.099Z,10.72
2022-10-31T07:01:51.081Z,10.74
2022-10-31T07:02:51.052Z,10.74
2022-10-31T07:03:51.018Z,10.75
2022-10-31T07:04:51.053Z,10.75
2022-10-31T07:05:51.000Z,10.81
2022-10-31T07:06:51.956Z,10.84
2022-10-31T07:07:50.976Z,10.89
2022-10-31T07:08:50.980Z,10.94
2022-10-31T07:09:50.958Z,10.97
2022-10-31T07:10:50.990Z,10.96
2022-10-31T07:11:50.936Z,10.94
2022-10-31T07:12:50.937Z,10.94
2022-10-31T07:13:50.908Z,10.93
2022-10-31T07:14:50.911Z,10.93
2022-10-31T07:15:50.911Z,10.94
2022-10-31T07:16:50.925Z,10.94
2022-10-31T07:17:50.869Z,11.02
2022-10-31T07:18:50.883Z,11.08
2022-10-31T07:19:50.852Z,11.17
2022-10-31T07:20:50.854Z,11.22
2022-10-31T07:21:50.826Z,11.30
2022-10-31T07:22:50.991Z,11.35
2022-10-31T07:23:50.806Z,11.41
2022-10-31T07:24:50.810Z,11.47
2022-10-31T07:25:50.787Z,11.52
2022-10-31T07:26:50.844Z,11.57
2022-10-31T07:27:50.760Z,11.60
2022-10-31T07:28:50.802Z,11.63
2022-10-31T07:29:50.756Z,11.63
2022-10-31T07:30:50.745Z,11.62
2022-10-31T07:31:50.717Z,11.59
2022-10-31T07:32:50.720Z,11.57
2022-10-31T07:33:50.701Z,11.51
2022-10-31T07:34:50.739Z,11.52
2022-10-31T07:35:50.678Z,11.55
2022-10-31T07:36:50.682Z,11.63
2022-10-31T07:37:50.651Z,11.65
2022-10-31T07:38:50.655Z,11.66
2022-10-31T07:39:50.638Z,11.68
2022-10-31T07:40:50.658Z,11.75
2022-10-31T07:41:50.608Z,11.81
2022-10-31T07:42:50.621Z,11.86
2022-10-31T07:43:50.713Z,11.90
2022-10-31T07:44:52.704Z,11.90
2022-10-31T07:45:50.568Z,11.88
2022-10-31T07:46:50.609Z,11.90
2022-10-31T07:47:50.549Z,11.91
2022-10-31T07:48:50.549Z,11.99
2022-10-31T07:49:50.534Z,12.02
2022-10-31T07:50:50.525Z,11.97
2022-10-31T07:51:50.504Z,11.99
2022-10-31T07:52:50.526Z,12.02
2022-10-31T07:53:50.490Z,12.04
2022-10-31T07:54:50.485Z,12.13
2022-10-31T07:55:50.475Z,12.13
2022-10-31T07:56:50.463Z,12.15
2022-10-31T07:57:50.454Z,12.15
2022-10-31T07:58:50.478Z,12.18
2022-10-31T07:59:50.417Z,12.22
2022-10-31T08:00:50.662Z,12.24
2022-10-31T08:01:50.394Z,12.29
2022-10-31T08:02:50.401Z,12.29
2022-10-31T08:03:50.393Z,12.36
2022-10-31T08:04:50.402Z,12.37
2022-10-31T08:05:50.356Z,12.40
2022-10-31T08:06:50.355Z,12.46
2022-10-31T08:07:50.337Z,12.46
2022-10-31T08:08:50.334Z,12.49
2022-10-31T08:09:50.310Z,12.53
2022-10-31T08:10:50.351Z,12.54
2022-10-31T08:11:50.287Z,12.57
2022-10-31T08:12:50.289Z,12.62
2022-10-31T08:13:50.286Z,12.68
2022-10-31T08:14:50.257Z,12.70
2022-10-31T08:15:50.335Z,12.76
2022-10-31T08:16:50.270Z,12.75
2022-10-31T08:17:50.237Z,12.76
2022-10-31T08:18:50.218Z,12.78
2022-10-31T08:19:50.212Z,12.80
2022-10-31T08:20:50.211Z,12.82
2022-10-31T08:21:50.192Z,12.83
2022-10-31T08:22:50.190Z,12.82
2022-10-31T08:23:50.183Z,12.83
2022-10-31T08:24:50.149Z,12.83
2022-10-31T08:25:50.148Z,12.85
2022-10-31T08:26:50.136Z,12.83
2022-10-31T08:27:50.133Z,12.86
2022-10-31T08:28:50.125Z,12.86
2022-10-31T08:29:50.123Z,12.91
2022-10-31T08:30:50.084Z,12.91
2022-10-31T08:31:50.086Z,12.87
2022-10-31T08:32:50.068Z,12.91
2022-10-31T08:33:50.064Z,12.90
2022-10-31T08:34:50.066Z,12.94
2022-10-31T08:35:50.044Z,12.93
2022-10-31T08:36:50.024Z,12.93
2022-10-31T08:37:50.018Z,12.95
2022-10-31T08:38:50.006Z,12.97
2022-10-31T08:39:50.001Z,13.00
2022-10-31T08:40:50.006Z,13.00
2022-10-31T08:41:49.976Z,13.01
2022-10-31T08:42:49.963Z,13.04
2022-10-31T08:43:49.962Z,13.11
2022-10-31T08:44:49.930Z,13.11
2022-10-31T08:45:49.942Z,13.08
2022-10-31T08:46:49.937Z,13.11
2022-10-31T08:47:49.911Z,13.11
2022-10-31T08:48:49.928Z,13.13
2022-10-31T08:49:49.899Z,13.13
2022-10-31T08:50:49.881Z,13.16
2022-10-31T08:51:49.868Z,13.19
2022-10-31T08:53:04.618Z,13.20
2022-10-31T08:53:49.852Z,13.23
2022-10-31T08:54:49.826Z,13.27
2022-10-31T08:55:49.831Z,13.31
2022-10-31T08:56:49.843Z,13.35
2022-10-31T08:57:49.813Z,13.38
2022-10-31T08:58:49.808Z,13.46
2022-10-31T08:59:49.801Z,13.47
2022-10-31T09:00:49.822Z,13.50
2022-10-31T09:01:49.907Z,13.53
2022-10-31T09:02:49.780Z,13.54
2022-10-31T09:03:49.743Z,13.57
2022-10-31T09:04:49.770Z,13.57
2022-10-31T09:05:49.806Z,13.60
2022-10-31T09:07:19.602Z,13.59
2022-10-31T09:07:49.755Z,13.60
2022-10-31T09:08:49.680Z,13.62
2022-10-31T09:09:49.702Z,13.62
2022-10-31T09:10:49.682Z,13.67
2022-10-31T09:11:49.659Z,13.70
2022-10-31T09:12:49.628Z,13.74
2022-10-31T09:13:49.633Z,13.72
2022-10-31T09:14:49.616Z,13.77
2022-10-31T09:15:49.609Z,13.83
2022-10-31T09:16:49.609Z,13.85
2022-10-31T09:17:49.589Z,13.90
2022-10-31T09:18:49.573Z,13.95
2022-10-31T09:19:49.566Z,14.00
2022-10-31T09:20:49.544Z,14.03
2022-10-31T09:21:49.561Z,14.08
2022-10-31T09:22:49.554Z,14.14
2022-10-31T09:23:49.522Z,14.20
2022-10-31T09:24:49.500Z,14.22
2022-10-31T09:25:50.894Z,14.23
2022-10-31T09:26:49.478Z,14.26
2022-10-31T09:27:49.501Z,14.26
2022-10-31T09:28:49.489Z,14.29
2022-10-31T09:29:49.457Z,14.29
2022-10-31T09:30:49.435Z,14.30
2022-10-31T09:31:49.439Z,14.33
2022-10-31T09:32:49.410Z,14.36
2022-10-31T09:33:49.424Z,14.37
2022-10-31T09:34:49.426Z,14.40
2022-10-31T09:35:49.393Z,14.43
2022-10-31T09:36:49.375Z,14.47
2022-10-31T09:37:49.370Z,14.50
2022-10-31T09:38:49.348Z,14.47
2022-10-31T09:39:49.355Z,14.45
2022-10-31T09:40:49.363Z,14.43
2022-10-31T09:41:54.503Z,14.36
2022-10-31T09:42:49.320Z,14.41
2022-10-31T09:43:49.307Z,14.50
2022-10-31T09:44:49.285Z,14.54
2022-10-31T09:45:49.299Z,14.60
2022-10-31T09:46:49.286Z,14.65
2022-10-31T09:47:49.266Z,14.66
2022-10-31T09:48:49.244Z,14.68
2022-10-31T09:49:49.347Z,14.66
2022-10-31T09:50:49.221Z,14.69
2022-10-31T09:51:52.907Z,14.66
2022-10-31T09:52:49.232Z,14.72
2022-10-31T09:53:49.199Z,14.78
2022-10-31T09:54:49.177Z,14.84
2022-10-31T09:55:49.178Z,14.85
2022-10-31T09:56:49.153Z,14.85
2022-10-31T09:57:49.229Z,14.94
2022-10-31T09:58:49.175Z,14.99
2022-10-31T09:59:49.156Z,15.06
2022-10-31T10:00:49.189Z,15.14
2022-10-31T10:01:49.261Z,15.18
2022-10-31T10:02:49.096Z,15.25
2022-10-31T10:03:49.096Z,15.33
2022-10-31T10:04:49.095Z,15.35
2022-10-31T10:05:49.071Z,15.39
2022-10-31T10:06:49.050Z,15.43
2022-10-31T10:07:49.155Z,15.43
2022-10-31T10:08:49.025Z,15.39
2022-10-31T10:09:49.049Z,15.37
2022-10-31T10:10:49.030Z,15.39
2022-10-31T10:11:49.009Z,15.42
2022-10-31T10:12:48.983Z,15.47
2022-10-31T10:13:48.987Z,15.51
2022-10-31T10:14:48.963Z,15.52
2022-10-31T10:15:48.961Z,15.57
2022-10-31T10:16:49.002Z,15.64
2022-10-31T10:17:49.033Z,15.68
2022-10-31T10:18:48.922Z,15.75
2022-10-31T10:19:48.917Z,15.80
2022-10-31T10:20:48.934Z,15.84
2022-10-31T10:21:48.900Z,15.94
2022-10-31T10:22:48.927Z,16.01
2022-10-31T10:23:48.874Z,16.10
2022-10-31T10:24:48.856Z,16.23
2022-10-31T10:25:48.851Z,16.35
2022-10-31T10:26:48.844Z,16.50
2022-10-31T10:27:48.835Z,16.64
2022-10-31T10:28:48.839Z,16.79
2022-10-31T10:29:48.817Z,16.99
2022-10-31T10:30:48.783Z,17.11
2022-10-31T10:31:48.797Z,17.29
2022-10-31T10:32:51.910Z,17.39
2022-10-31T10:33:48.768Z,17.48
2022-10-31T10:34:48.784Z,17.59
2022-10-31T10:35:48.745Z,17.67
2022-10-31T10:36:48.728Z,17.80
2022-10-31T10:37:48.762Z,17.95
2022-10-31T10:38:48.715Z,18.08
2022-10-31T10:39:48.706Z,18.11
2022-10-31T10:40:48.701Z,18.10
2022-10-31T10:41:48.682Z,18.11
2022-10-31T10:42:48.672Z,18.04
2022-10-31T10:43:48.665Z,17.92
2022-10-31T10:44:48.634Z,17.94
2022-10-31T10:45:48.645Z,17.89
2022-10-31T10:46:48.652Z,17.92
2022-10-31T10:47:48.616Z,17.95
2022-10-31T10:48:48.602Z,17.95
2022-10-31T10:49:48.592Z,17.94
2022-10-31T10:50:48.575Z,17.89
2022-10-31T10:52:50.806Z,17.70
2022-10-31T10:53:48.552Z,17.70
2022-10-31T10:54:48.529Z,17.68
2022-10-31T10:55:48.532Z,17.67
2022-10-31T10:56:48.510Z,17.67
2022-10-31T10:57:48.512Z,17.56
2022-10-31T10:58:48.510Z,17.49
2022-10-31T10:59:48.492Z,17.46
2022-10-31T11:00:48.582Z,17.46
2022-10-31T11:01:48.469Z,17.45
2022-10-31T11:02:49.186Z,17.44
2022-10-31T11:03:48.448Z,17.34
2022-10-31T11:04:48.450Z,17.26
2022-10-31T11:05:48.431Z,17.20
2022-10-31T11:06:48.399Z,17.16
2022-10-31T11:07:48.408Z,17.19
2022-10-31T11:08:48.386Z,17.15
2022-10-31T11:09:48.397Z,17.12
2022-10-31T11:10:48.437Z,17.15
2022-10-31T11:11:48.363Z,17.19
2022-10-31T11:12:48.358Z,17.16
2022-10-31T11:13:48.341Z,17.19
2022-10-31T11:14:48.318Z,17.22
2022-10-31T11:15:48.326Z,17.26
2022-10-31T11:16:48.331Z,17.27
2022-10-31T11:17:48.298Z,17.31
2022-10-31T11:18:48.298Z,17.31
2022-10-31T11:19:48.271Z,17.36
2022-10-31T11:20:48.268Z,17.41
2022-10-31T11:21:53.885Z,17.41
2022-10-31T11:22:48.265Z,17.41
2022-10-31T11:23:48.232Z,17.46
2022-10-31T11:24:48.214Z,17.57
2022-10-31T11:25:48.228Z,17.72
2022-10-31T11:26:48.199Z,18.03
2022-10-31T11:27:48.212Z,18.33
2022-10-31T11:28:48.165Z,18.70
2022-10-31T11:29:48.169Z,19.02
2022-10-31T11:30:48.150Z,19.33
2022-10-31T11:31:48.144Z,19.44
2022-10-31T11:32:48.132Z,19.44
2022-10-31T11:33:48.149Z,19.49
2022-10-31T11:34:48.110Z,19.55
2022-10-31T11:35:49.877Z,19.55
2022-10-31T11:36:48.078Z,19.64
2022-10-31T11:37:48.082Z,19.69
2022-10-31T11:38:48.079Z,19.74
2022-10-31T11:39:48.064Z,19.76
2022-10-31T11:40:48.038Z,19.70
2022-10-31T11:41:48.041Z,19.71
2022-10-31T11:42:48.013Z,19.74
2022-10-31T11:43:48.052Z,19.64
2022-10-31T11:44:47.993Z,19.52
2022-10-31T11:45:48.005Z,19.48
2022-10-31T11:46:47.980Z,19.44
2022-10-31T11:47:47.973Z,19.34
2022-10-31T11:48:47.954Z,19.31
2022-10-31T11:49:47.990Z,19.31
2022-10-31T11:50:47.927Z,19.29
2022-10-31T11:51:47.934Z,19.33
2022-10-31T11:52:47.950Z,19.21
2022-10-31T11:53:47.927Z,19.21
2022-10-31T11:54:47.903Z,19.18
2022-10-31T11:55:47.893Z,19.15
2022-10-31T11:56:47.863Z,19.12
2022-10-31T11:57:47.882Z,19.11
2022-10-31T11:58:47.840Z,19.09
2022-10-31T11:59:47.866Z,19.16
2022-10-31T12:00:47.821Z,19.21
2022-10-31T12:01:47.985Z,19.22
2022-10-31T12:02:47.950Z,19.16
2022-10-31T12:03:47.840Z,19.12
2022-10-31T12:04:47.777Z,19.11
2022-10-31T12:05:47.802Z,19.00
2022-10-31T12:06:47.750Z,18.88
2022-10-31T12:07:47.754Z,18.88
2022-10-31T12:08:47.731Z,18.86
2022-10-31T12:09:47.733Z,18.84
2022-10-31T12:10:47.733Z,18.86
2022-10-31T12:11:47.709Z,18.86
2022-10-31T12:12:47.687Z,18.81
2022-10-31T12:13:47.694Z,18.74
2022-10-31T12:14:47.669Z,18.70
2022-10-31T12:15:47.692Z,18.65
2022-10-31T12:16:47.644Z,18.55
2022-10-31T12:17:47.685Z,18.53
2022-10-31T12:18:47.621Z,18.49
2022-10-31T12:19:50.124Z,18.45
2022-10-31T12:20:47.611Z,18.44
2022-10-31T12:21:47.624Z,18.41
2022-10-31T12:22:47.617Z,18.43
2022-10-31T12:23:47.582Z,18.41
2022-10-31T12:24:47.555Z,18.41
2022-10-31T12:25:47.558Z,18.37
2022-10-31T12:26:47.572Z,18.35
2022-10-31T12:27:47.536Z,18.34
2022-10-31T12:28:51.213Z,18.34
2022-10-31T12:29:47.518Z,18.35
2022-10-31T12:30:47.527Z,18.34
2022-10-31T12:31:47.488Z,18.34
2022-10-31T12:32:47.517Z,18.34
2022-10-31T12:33:47.459Z,18.33
2022-10-31T12:34:49.263Z,18.33
2022-10-31T12:35:47.436Z,18.31
2022-10-31T12:36:47.446Z,18.33
2022-10-31T12:37:47.421Z,18.38
2022-10-31T12:38:47.442Z,18.44
2022-10-31T12:39:47.391Z,18.50
2022-10-31T12:40:47.399Z,18.53
2022-10-31T12:41:47.383Z,18.55
2022-10-31T12:42:47.375Z,18.62
2022-10-31T12:43:47.376Z,18.65
2022-10-31T12:44:47.386Z,18.62
2022-10-31T12:45:47.338Z,18.65
2022-10-31T12:46:47.363Z,18.66
2022-10-31T12:47:47.305Z,18.68
2022-10-31T12:48:47.328Z,18.73
2022-10-31T12:49:47.320Z,18.77
2022-10-31T12:50:47.333Z,18.83
2022-10-31T12:51:47.280Z,18.90
2022-10-31T12:52:47.266Z,18.96
2022-10-31T12:53:47.244Z,18.98